sensor_id;sensor_type;location;lat;lon;timestamp;temperature;humidity
2497;DHT22;1259;48.306;14.374;2023-08-01T00:00:23;19.90;98.30
2497;DHT22;1259;48.306;14.374;2023-08-01T00:02:50;20.00;98.40
2497;DHT22;1259;48.306;14.374;2023-08-01T00:05:16;20.00;98.60
2497;DHT22;1259;48.306;14.374;2023-08-01T00:07:43;20.00;98.60
2497;DHT22;1259;48.306;14.374;2023-08-01T00:10:10;20.00;98.70
2497;DHT22;1259;48.306;14.374;2023-08-01T00:12:36;20.00;98.80
2497;DHT22;1259;48.306;14.374;2023-08-01T00:15:03;20.00;99.00
2497;DHT22;1259;48.306;14.374;2023-08-01T00:17:31;20.00;99.10
2497;DHT22;1259;48.306;14.374;2023-08-01T00:19:58;20.00;99.10
2497;DHT22;1259;48.306;14.374;2023-08-01T00:22:25;20.10;99.30
2497;DHT22;1259;48.306;14.374;2023-08-01T00:24:51;20.10;99.50
2497;DHT22;1259;48.306;14.374;2023-08-01T00:27:18;20.00;99.60
2497;DHT22;1259;48.306;14.374;2023-08-01T00:29:45;20.00;99.60
2497;DHT22;1259;48.306;14.374;2023-08-01T00:32:11;19.90;99.90
2497;DHT22;1259;48.306;14.374;2023-08-01T00:34:39;20.00;99.90
2497;DHT22;1259;48.306;14.374;2023-08-01T00:37:06;20.00;99.90
2497;DHT22;1259;48.306;14.374;2023-08-01T00:39:33;20.00;99.90
2497;DHT22;1259;48.306;14.374;2023-08-01T00:41:59;20.00;99.90
2497;DHT22;1259;48.306;14.374;2023-08-01T00:44:26;20.00;99.90
2497;DHT22;1259;48.306;14.374;2023-08-01T00:46:53;19.90;99.90
2497;DHT22;1259;48.306;14.374;2023-08-01T00:49:20;19.90;99.90
2497;DHT22;1259;48.306;14.374;2023-08-01T00:51:48;19.80;99.90
2497;DHT22;1259;48.306;14.374;2023-08-01T00:54:15;19.80;99.90
2497;DHT22;1259;48.306;14.374;2023-08-01T00:56:41;19.80;99.90
2497;DHT22;1259;48.306;14.374;2023-08-01T00:59:08;19.80;99.90
2497;DHT22;1259;48.306;14.374;2023-08-01T01:01:35;19.80;99.90
2497;DHT22;1259;48.306;14.374;2023-08-01T01:04:02;19.80;99.90
2497;DHT22;1259;48.306;14.374;2023-08-01T01:06:32;19.90;99.90
2497;DHT22;1259;48.306;14.374;2023-08-01T01:09:00;19.90;99.90
2497;DHT22;1259;48.306;14.374;2023-08-01T01:11:30;19.90;99.90
2497;DHT22;1259;48.306;14.374;2023-08-01T01:13:56;19.90;99.90
2497;DHT22;1259;48.306;14.374;2023-08-01T01:16:23;19.90;99.90
2497;DHT22;1259;48.306;14.374;2023-08-01T01:18:50;19.80;99.90
2497;DHT22;1259;48.306;14.374;2023-08-01T01:21:18;19.80;99.90
2497;DHT22;1259;48.306;14.374;2023-08-01T01:23:44;19.80;99.90
2497;DHT22;1259;48.306;14.374;2023-08-01T01:26:12;19.70;99.90
2497;DHT22;1259;48.306;14.374;2023-08-01T01:28:39;19.70;99.90
2497;DHT22;1259;48.306;14.374;2023-08-01T01:31:06;19.60;99.90
2497;DHT22;1259;48.306;14.374;2023-08-01T01:33:33;19.60;99.90
2497;DHT22;1259;48.306;14.374;2023-08-01T01:36:00;19.60;99.90
2497;DHT22;1259;48.306;14.374;2023-08-01T01:38:28;19.50;99.90
2497;DHT22;1259;48.306;14.374;2023-08-01T01:40:55;19.40;99.90
2497;DHT22;1259;48.306;14.374;2023-08-01T01:43:21;19.30;99.90
2497;DHT22;1259;48.306;14.374;2023-08-01T01:45:48;19.40;99.90
2497;DHT22;1259;48.306;14.374;2023-08-01T01:48:15;19.40;99.90
2497;DHT22;1259;48.306;14.374;2023-08-01T01:50:41;19.40;99.90
2497;DHT22;1259;48.306;14.374;2023-08-01T01:53:08;19.40;99.90
2497;DHT22;1259;48.306;14.374;2023-08-01T01:55:36;19.40;99.90
2497;DHT22;1259;48.306;14.374;2023-08-01T01:58:03;19.50;99.90
2497;DHT22;1259;48.306;14.374;2023-08-01T02:00:29;19.50;99.90
2497;DHT22;1259;48.306;14.374;2023-08-01T02:02:56;19.50;99.90
2497;DHT22;1259;48.306;14.374;2023-08-01T02:05:23;19.50;99.90
2497;DHT22;1259;48.306;14.374;2023-08-01T02:07:49;19.50;99.90
2497;DHT22;1259;48.306;14.374;2023-08-01T02:10:16;19.50;99.90
2497;DHT22;1259;48.306;14.374;2023-08-01T02:12:44;19.50;99.90
2497;DHT22;1259;48.306;14.374;2023-08-01T02:15:11;19.50;99.90
2497;DHT22;1259;48.306;14.374;2023-08-01T02:17:37;19.50;99.90
2497;DHT22;1259;48.306;14.374;2023-08-01T02:20:04;19.50;99.90
2497;DHT22;1259;48.306;14.374;2023-08-01T02:22:32;19.40;99.90
2497;DHT22;1259;48.306;14.374;2023-08-01T02:24:58;19.50;99.90
2497;DHT22;1259;48.306;14.374;2023-08-01T02:27:24;19.50;99.90
2497;DHT22;1259;48.306;14.374;2023-08-01T02:29:52;19.40;99.90
2497;DHT22;1259;48.306;14.374;2023-08-01T02:32:19;19.40;99.90
2497;DHT22;1259;48.306;14.374;2023-08-01T02:34:46;19.50;99.90
2497;DHT22;1259;48.306;14.374;2023-08-01T02:37:13;19.50;99.90
2497;DHT22;1259;48.306;14.374;2023-08-01T02:39:39;19.40;99.90
2497;DHT22;1259;48.306;14.374;2023-08-01T02:42:06;19.30;99.90
2497;DHT22;1259;48.306;14.374;2023-08-01T02:44:33;19.40;99.90
2497;DHT22;1259;48.306;14.374;2023-08-01T02:47:01;19.50;99.90
2497;DHT22;1259;48.306;14.374;2023-08-01T02:49:28;19.40;99.90
2497;DHT22;1259;48.306;14.374;2023-08-01T02:51:55;19.00;99.90
2497;DHT22;1259;48.306;14.374;2023-08-01T02:54:21;19.10;99.90
2497;DHT22;1259;48.306;14.374;2023-08-01T02:56:48;19.10;99.90
2497;DHT22;1259;48.306;14.374;2023-08-01T02:59:15;19.10;99.90
2497;DHT22;1259;48.306;14.374;2023-08-01T03:01:43;19.20;99.90
2497;DHT22;1259;48.306;14.374;2023-08-01T03:04:11;19.30;99.90
2497;DHT22;1259;48.306;14.374;2023-08-01T03:06:38;19.20;99.90
2497;DHT22;1259;48.306;14.374;2023-08-01T03:09:05;19.10;99.90
2497;DHT22;1259;48.306;14.374;2023-08-01T03:11:33;19.20;99.90
2497;DHT22;1259;48.306;14.374;2023-08-01T03:14:00;19.20;99.90
2497;DHT22;1259;48.306;14.374;2023-08-01T03:16:26;19.30;99.90
2497;DHT22;1259;48.306;14.374;2023-08-01T03:18:53;19.20;99.90
2497;DHT22;1259;48.306;14.374;2023-08-01T03:21:21;19.20;99.90
2497;DHT22;1259;48.306;14.374;2023-08-01T03:23:48;19.10;99.90
2497;DHT22;1259;48.306;14.374;2023-08-01T03:26:14;19.10;99.90
2497;DHT22;1259;48.306;14.374;2023-08-01T03:28:43;19.10;99.90
2497;DHT22;1259;48.306;14.374;2023-08-01T03:31:10;19.00;99.90
2497;DHT22;1259;48.306;14.374;2023-08-01T03:33:36;19.00;99.90
2497;DHT22;1259;48.306;14.374;2023-08-01T03:36:03;19.10;99.90
2497;DHT22;1259;48.306;14.374;2023-08-01T03:38:32;19.20;99.90
2497;DHT22;1259;48.306;14.374;2023-08-01T03:40:58;19.30;99.90
2497;DHT22;1259;48.306;14.374;2023-08-01T03:43:25;19.30;99.90
2497;DHT22;1259;48.306;14.374;2023-08-01T03:45:52;19.20;99.90
2497;DHT22;1259;48.306;14.374;2023-08-01T03:48:18;19.30;99.90
2497;DHT22;1259;48.306;14.374;2023-08-01T03:50:45;19.40;99.90
2497;DHT22;1259;48.306;14.374;2023-08-01T03:53:11;19.40;99.90
2497;DHT22;1259;48.306;14.374;2023-08-01T03:55:40;19.30;99.90
2497;DHT22;1259;48.306;14.374;2023-08-01T03:58:07;19.30;99.90
2497;DHT22;1259;48.306;14.374;2023-08-01T04:00:34;19.40;99.90
2497;DHT22;1259;48.306;14.374;2023-08-01T04:03:01;19.20;99.90
2497;DHT22;1259;48.306;14.374;2023-08-01T04:05:27;19.00;99.90
2497;DHT22;1259;48.306;14.374;2023-08-01T04:07:54;19.10;99.90
2497;DHT22;1259;48.306;14.374;2023-08-01T04:10:21;19.10;99.90
2497;DHT22;1259;48.306;14.374;2023-08-01T04:12:49;19.00;99.90
2497;DHT22;1259;48.306;14.374;2023-08-01T04:15:16;18.90;99.90
2497;DHT22;1259;48.306;14.374;2023-08-01T04:17:42;18.90;99.90
2497;DHT22;1259;48.306;14.374;2023-08-01T04:20:09;18.80;99.90
2497;DHT22;1259;48.306;14.374;2023-08-01T04:22:36;18.80;99.90
2497;DHT22;1259;48.306;14.374;2023-08-01T04:25:03;18.80;99.90
2497;DHT22;1259;48.306;14.374;2023-08-01T04:27:29;18.90;99.90
2497;DHT22;1259;48.306;14.374;2023-08-01T04:29:57;18.80;99.90
2497;DHT22;1259;48.306;14.374;2023-08-01T04:32:24;18.90;99.90
2497;DHT22;1259;48.306;14.374;2023-08-01T04:34:51;19.00;99.90
2497;DHT22;1259;48.306;14.374;2023-08-01T04:37:17;18.80;99.90
2497;DHT22;1259;48.306;14.374;2023-08-01T04:39:46;18.90;99.90
2497;DHT22;1259;48.306;14.374;2023-08-01T04:42:12;18.90;99.90
2497;DHT22;1259;48.306;14.374;2023-08-01T04:44:39;18.80;99.90
2497;DHT22;1259;48.306;14.374;2023-08-01T04:47:07;18.70;99.90
2497;DHT22;1259;48.306;14.374;2023-08-01T04:49:34;18.70;99.90
2497;DHT22;1259;48.306;14.374;2023-08-01T04:52:00;18.70;99.90
2497;DHT22;1259;48.306;14.374;2023-08-01T04:54:27;18.80;99.90
2497;DHT22;1259;48.306;14.374;2023-08-01T04:56:54;19.00;99.90
2497;DHT22;1259;48.306;14.374;2023-08-01T04:59:20;19.00;99.90
2497;DHT22;1259;48.306;14.374;2023-08-01T05:01:47;18.90;99.90
2497;DHT22;1259;48.306;14.374;2023-08-01T05:04:15;18.80;99.90
2497;DHT22;1259;48.306;14.374;2023-08-01T05:06:42;18.70;99.90
2497;DHT22;1259;48.306;14.374;2023-08-01T05:09:08;18.60;99.90
2497;DHT22;1259;48.306;14.374;2023-08-01T05:11:35;18.70;99.90
2497;DHT22;1259;48.306;14.374;2023-08-01T05:14:02;18.60;99.90
2497;DHT22;1259;48.306;14.374;2023-08-01T05:16:28;18.70;99.90
2497;DHT22;1259;48.306;14.374;2023-08-01T05:18:55;18.70;99.90
2497;DHT22;1259;48.306;14.374;2023-08-01T05:21:23;18.70;99.90
2497;DHT22;1259;48.306;14.374;2023-08-01T05:23:50;18.50;99.90
2497;DHT22;1259;48.306;14.374;2023-08-01T05:26:17;18.70;99.90
2497;DHT22;1259;48.306;14.374;2023-08-01T05:28:44;18.70;99.90
2497;DHT22;1259;48.306;14.374;2023-08-01T05:31:10;18.60;99.90
2497;DHT22;1259;48.306;14.374;2023-08-01T05:33:37;18.50;99.90
2497;DHT22;1259;48.306;14.374;2023-08-01T05:36:04;18.60;99.90
2497;DHT22;1259;48.306;14.374;2023-08-01T05:38:32;18.60;99.90
2497;DHT22;1259;48.306;14.374;2023-08-01T05:40:58;18.60;99.90
2497;DHT22;1259;48.306;14.374;2023-08-01T05:43:25;18.70;99.90
2497;DHT22;1259;48.306;14.374;2023-08-01T05:45:52;18.80;99.90
2497;DHT22;1259;48.306;14.374;2023-08-01T05:48:18;18.80;99.90
2497;DHT22;1259;48.306;14.374;2023-08-01T05:50:45;18.80;99.90
2497;DHT22;1259;48.306;14.374;2023-08-01T05:53:12;18.80;99.90
2497;DHT22;1259;48.306;14.374;2023-08-01T05:55:40;18.80;99.90
2497;DHT22;1259;48.306;14.374;2023-08-01T05:58:06;18.80;99.90
2497;DHT22;1259;48.306;14.374;2023-08-01T06:00:33;18.80;99.90
2497;DHT22;1259;48.306;14.374;2023-08-01T06:03:00;18.70;99.90
2497;DHT22;1259;48.306;14.374;2023-08-01T06:05:27;18.60;99.90
2497;DHT22;1259;48.306;14.374;2023-08-01T06:07:54;18.50;99.90
2497;DHT22;1259;48.306;14.374;2023-08-01T06:10:21;18.50;99.90
2497;DHT22;1259;48.306;14.374;2023-08-01T06:12:49;18.40;99.90
2497;DHT22;1259;48.306;14.374;2023-08-01T06:15:16;18.30;99.90
2497;DHT22;1259;48.306;14.374;2023-08-01T06:17:43;18.30;99.90
2497;DHT22;1259;48.306;14.374;2023-08-01T06:20:10;18.10;99.90
2497;DHT22;1259;48.306;14.374;2023-08-01T06:22:37;18.10;99.90
2497;DHT22;1259;48.306;14.374;2023-08-01T06:25:04;18.00;99.90
2497;DHT22;1259;48.306;14.374;2023-08-01T06:27:30;18.10;99.90
2497;DHT22;1259;48.306;14.374;2023-08-01T06:29:58;18.20;99.90
2497;DHT22;1259;48.306;14.374;2023-08-01T06:32:25;18.20;99.90
2497;DHT22;1259;48.306;14.374;2023-08-01T06:34:52;18.00;99.90
2497;DHT22;1259;48.306;14.374;2023-08-01T06:37:19;18.10;99.90
2497;DHT22;1259;48.306;14.374;2023-08-01T06:39:45;18.10;99.90
2497;DHT22;1259;48.306;14.374;2023-08-01T06:42:12;18.10;99.90
2497;DHT22;1259;48.306;14.374;2023-08-01T06:44:39;18.00;99.90
2497;DHT22;1259;48.306;14.374;2023-08-01T06:47:07;17.90;99.90
2497;DHT22;1259;48.306;14.374;2023-08-01T06:49:34;17.90;99.90
2497;DHT22;1259;48.306;14.374;2023-08-01T06:52:01;18.00;99.90
2497;DHT22;1259;48.306;14.374;2023-08-01T06:54:27;18.00;99.90
2497;DHT22;1259;48.306;14.374;2023-08-01T06:56:54;18.00;99.90
2497;DHT22;1259;48.306;14.374;2023-08-01T06:59:21;18.10;99.90
2497;DHT22;1259;48.306;14.374;2023-08-01T07:01:47;18.00;99.90
2497;DHT22;1259;48.306;14.374;2023-08-01T07:04:15;17.80;99.90
2497;DHT22;1259;48.306;14.374;2023-08-01T07:06:42;17.90;99.90
2497;DHT22;1259;48.306;14.374;2023-08-01T07:09:09;18.10;99.90
2497;DHT22;1259;48.306;14.374;2023-08-01T07:11:35;18.10;99.90
2497;DHT22;1259;48.306;14.374;2023-08-01T07:14:02;18.30;99.90
2497;DHT22;1259;48.306;14.374;2023-08-01T07:16:29;18.30;99.90
2497;DHT22;1259;48.306;14.374;2023-08-01T07:18:55;18.30;99.90
2497;DHT22;1259;48.306;14.374;2023-08-01T07:21:23;18.30;99.90
2497;DHT22;1259;48.306;14.374;2023-08-01T07:23:50;18.40;99.90
2497;DHT22;1259;48.306;14.374;2023-08-01T07:26:17;18.40;99.90
2497;DHT22;1259;48.306;14.374;2023-08-01T07:28:43;18.40;99.90
2497;DHT22;1259;48.306;14.374;2023-08-01T07:31:10;18.50;99.90
2497;DHT22;1259;48.306;14.374;2023-08-01T07:33:37;18.60;99.90
2497;DHT22;1259;48.306;14.374;2023-08-01T07:36:04;18.60;99.90
2497;DHT22;1259;48.306;14.374;2023-08-01T07:38:32;18.50;99.90
2497;DHT22;1259;48.306;14.374;2023-08-01T07:41:03;18.50;99.90
2497;DHT22;1259;48.306;14.374;2023-08-01T07:43:30;18.40;99.90
2497;DHT22;1259;48.306;14.374;2023-08-01T07:45:57;18.50;99.90
2497;DHT22;1259;48.306;14.374;2023-08-01T07:48:24;18.60;99.90
2497;DHT22;1259;48.306;14.374;2023-08-01T07:50:51;18.70;99.90
2497;DHT22;1259;48.306;14.374;2023-08-01T07:53:18;18.80;99.90
2497;DHT22;1259;48.306;14.374;2023-08-01T07:55:46;18.70;99.90
2497;DHT22;1259;48.306;14.374;2023-08-01T07:58:12;18.70;99.90
2497;DHT22;1259;48.306;14.374;2023-08-01T08:00:39;18.80;99.90
2497;DHT22;1259;48.306;14.374;2023-08-01T08:03:06;18.80;99.90
2497;DHT22;1259;48.306;14.374;2023-08-01T08:05:33;18.50;99.90
2497;DHT22;1259;48.306;14.374;2023-08-01T08:08:03;18.60;99.90
2497;DHT22;1259;48.306;14.374;2023-08-01T08:10:30;18.70;99.90
2497;DHT22;1259;48.306;14.374;2023-08-01T08:12:58;18.70;99.90
2497;DHT22;1259;48.306;14.374;2023-08-01T08:15:25;18.40;99.90
2497;DHT22;1259;48.306;14.374;2023-08-01T08:17:52;18.20;99.90
2497;DHT22;1259;48.306;14.374;2023-08-01T08:20:18;18.30;99.90
2497;DHT22;1259;48.306;14.374;2023-08-01T08:22:45;18.40;99.90
2497;DHT22;1259;48.306;14.374;2023-08-01T08:25:12;18.20;99.90
2497;DHT22;1259;48.306;14.374;2023-08-01T08:27:39;18.00;99.90
2497;DHT22;1259;48.306;14.374;2023-08-01T08:30:07;18.00;99.90
2497;DHT22;1259;48.306;14.374;2023-08-01T08:32:35;18.10;99.90
2497;DHT22;1259;48.306;14.374;2023-08-01T08:35:01;18.20;99.90
2497;DHT22;1259;48.306;14.374;2023-08-01T08:37:30;18.20;99.90
2497;DHT22;1259;48.306;14.374;2023-08-01T08:39:57;18.30;99.90
2497;DHT22;1259;48.306;14.374;2023-08-01T08:42:24;18.10;99.90
2497;DHT22;1259;48.306;14.374;2023-08-01T08:44:53;18.10;99.90
2497;DHT22;1259;48.306;14.374;2023-08-01T08:47:22;18.10;99.90
2497;DHT22;1259;48.306;14.374;2023-08-01T08:49:50;18.10;99.90
2497;DHT22;1259;48.306;14.374;2023-08-01T08:52:18;18.10;99.90
2497;DHT22;1259;48.306;14.374;2023-08-01T08:54:45;18.20;99.90
2497;DHT22;1259;48.306;14.374;2023-08-01T08:57:12;18.30;99.90
2497;DHT22;1259;48.306;14.374;2023-08-01T08:59:40;18.30;99.90
2497;DHT22;1259;48.306;14.374;2023-08-01T09:02:07;18.30;99.90
2497;DHT22;1259;48.306;14.374;2023-08-01T09:04:35;18.20;99.90
2497;DHT22;1259;48.306;14.374;2023-08-01T09:07:02;18.10;99.90
2497;DHT22;1259;48.306;14.374;2023-08-01T09:09:32;18.10;99.90
2497;DHT22;1259;48.306;14.374;2023-08-01T09:11:59;18.20;99.90
2497;DHT22;1259;48.306;14.374;2023-08-01T09:14:26;18.20;99.90
2497;DHT22;1259;48.306;14.374;2023-08-01T09:16:52;18.20;99.90
2497;DHT22;1259;48.306;14.374;2023-08-01T09:19:20;18.20;99.90
2497;DHT22;1259;48.306;14.374;2023-08-01T09:21:48;18.30;99.90
2497;DHT22;1259;48.306;14.374;2023-08-01T09:24:16;18.30;99.90
2497;DHT22;1259;48.306;14.374;2023-08-01T09:26:44;18.30;99.90
2497;DHT22;1259;48.306;14.374;2023-08-01T09:29:11;18.40;99.90
2497;DHT22;1259;48.306;14.374;2023-08-01T09:31:38;18.40;99.90
2497;DHT22;1259;48.306;14.374;2023-08-01T09:34:05;18.50;99.90
2497;DHT22;1259;48.306;14.374;2023-08-01T09:36:32;18.50;99.90
2497;DHT22;1259;48.306;14.374;2023-08-01T09:39:01;18.50;99.90
2497;DHT22;1259;48.306;14.374;2023-08-01T09:41:28;18.60;99.90
2497;DHT22;1259;48.306;14.374;2023-08-01T09:43:55;18.70;99.90
2497;DHT22;1259;48.306;14.374;2023-08-01T09:46:22;18.70;99.90
2497;DHT22;1259;48.306;14.374;2023-08-01T09:48:49;18.70;99.90
2497;DHT22;1259;48.306;14.374;2023-08-01T09:51:16;18.80;99.90
2497;DHT22;1259;48.306;14.374;2023-08-01T09:53:46;18.90;99.90
2497;DHT22;1259;48.306;14.374;2023-08-01T09:56:15;18.80;99.90
2497;DHT22;1259;48.306;14.374;2023-08-01T09:58:44;18.80;99.90
2497;DHT22;1259;48.306;14.374;2023-08-01T10:01:11;18.90;99.90
2497;DHT22;1259;48.306;14.374;2023-08-01T10:03:39;18.80;99.90
2497;DHT22;1259;48.306;14.374;2023-08-01T10:06:08;18.90;99.90
2497;DHT22;1259;48.306;14.374;2023-08-01T10:08:35;19.00;99.90
2497;DHT22;1259;48.306;14.374;2023-08-01T10:11:04;18.90;99.90
2497;DHT22;1259;48.306;14.374;2023-08-01T10:13:32;18.90;99.90
2497;DHT22;1259;48.306;14.374;2023-08-01T10:15:59;18.90;99.90
2497;DHT22;1259;48.306;14.374;2023-08-01T10:18:25;18.90;99.90
2497;DHT22;1259;48.306;14.374;2023-08-01T10:20:54;18.90;99.90
2497;DHT22;1259;48.306;14.374;2023-08-01T10:23:21;18.90;99.90
2497;DHT22;1259;48.306;14.374;2023-08-01T10:25:49;18.90;99.90
2497;DHT22;1259;48.306;14.374;2023-08-01T10:28:15;18.80;99.90
2497;DHT22;1259;48.306;14.374;2023-08-01T10:30:43;18.80;99.90
2497;DHT22;1259;48.306;14.374;2023-08-01T10:33:10;18.80;99.90
2497;DHT22;1259;48.306;14.374;2023-08-01T10:35:38;18.80;99.90
2497;DHT22;1259;48.306;14.374;2023-08-01T10:38:05;18.90;99.90
2497;DHT22;1259;48.306;14.374;2023-08-01T10:40:32;18.90;99.90
2497;DHT22;1259;48.306;14.374;2023-08-01T10:42:59;19.00;99.90
2497;DHT22;1259;48.306;14.374;2023-08-01T10:45:26;18.80;99.90
2497;DHT22;1259;48.306;14.374;2023-08-01T10:48:05;18.80;99.90
2497;DHT22;1259;48.306;14.374;2023-08-01T10:50:32;18.90;99.90
2497;DHT22;1259;48.306;14.374;2023-08-01T10:53:01;18.70;99.90
2497;DHT22;1259;48.306;14.374;2023-08-01T10:55:37;18.70;99.90
2497;DHT22;1259;48.306;14.374;2023-08-01T10:58:04;18.70;99.90
2497;DHT22;1259;48.306;14.374;2023-08-01T11:00:31;18.80;99.90
2497;DHT22;1259;48.306;14.374;2023-08-01T11:02:59;18.90;99.90
2497;DHT22;1259;48.306;14.374;2023-08-01T11:05:26;19.00;99.90
2497;DHT22;1259;48.306;14.374;2023-08-01T11:07:56;19.00;99.90
2497;DHT22;1259;48.306;14.374;2023-08-01T11:10:24;19.00;99.90
2497;DHT22;1259;48.306;14.374;2023-08-01T11:12:51;18.90;99.90
2497;DHT22;1259;48.306;14.374;2023-08-01T11:15:18;19.10;99.90
2497;DHT22;1259;48.306;14.374;2023-08-01T11:17:46;19.10;99.90
2497;DHT22;1259;48.306;14.374;2023-08-01T11:20:16;19.10;99.90
2497;DHT22;1259;48.306;14.374;2023-08-01T11:22:50;19.10;99.90
2497;DHT22;1259;48.306;14.374;2023-08-01T11:25:17;19.10;99.90
2497;DHT22;1259;48.306;14.374;2023-08-01T11:27:44;19.20;99.90
2497;DHT22;1259;48.306;14.374;2023-08-01T11:30:11;19.20;99.90
2497;DHT22;1259;48.306;14.374;2023-08-01T11:32:38;19.20;99.90
2497;DHT22;1259;48.306;14.374;2023-08-01T11:35:05;19.10;99.90
2497;DHT22;1259;48.306;14.374;2023-08-01T11:37:33;19.10;99.90
2497;DHT22;1259;48.306;14.374;2023-08-01T11:40:00;19.10;99.90
2497;DHT22;1259;48.306;14.374;2023-08-01T11:42:30;19.10;99.90
2497;DHT22;1259;48.306;14.374;2023-08-01T11:45:09;19.10;99.90
2497;DHT22;1259;48.306;14.374;2023-08-01T11:47:36;19.00;99.90
2497;DHT22;1259;48.306;14.374;2023-08-01T11:50:02;19.00;99.90
2497;DHT22;1259;48.306;14.374;2023-08-01T11:52:29;19.00;99.90
2497;DHT22;1259;48.306;14.374;2023-08-01T11:54:58;19.20;99.90
2497;DHT22;1259;48.306;14.374;2023-08-01T11:57:24;19.20;99.90
2497;DHT22;1259;48.306;14.374;2023-08-01T11:59:52;19.20;99.90
2497;DHT22;1259;48.306;14.374;2023-08-01T12:02:22;19.10;99.90
2497;DHT22;1259;48.306;14.374;2023-08-01T12:04:49;19.10;99.90
2497;DHT22;1259;48.306;14.374;2023-08-01T12:07:16;19.00;99.90
2497;DHT22;1259;48.306;14.374;2023-08-01T12:09:43;19.10;99.90
2497;DHT22;1259;48.306;14.374;2023-08-01T12:12:11;19.10;99.90
2497;DHT22;1259;48.306;14.374;2023-08-01T12:14:41;19.20;99.90
2497;DHT22;1259;48.306;14.374;2023-08-01T12:17:07;19.10;99.90
2497;DHT22;1259;48.306;14.374;2023-08-01T12:19:34;19.20;99.90
2497;DHT22;1259;48.306;14.374;2023-08-01T12:22:01;19.10;99.90
2497;DHT22;1259;48.306;14.374;2023-08-01T12:24:27;19.20;99.90
2497;DHT22;1259;48.306;14.374;2023-08-01T12:26:54;19.10;99.90
2497;DHT22;1259;48.306;14.374;2023-08-01T12:29:22;19.20;99.90
2497;DHT22;1259;48.306;14.374;2023-08-01T12:31:49;19.10;99.90
2497;DHT22;1259;48.306;14.374;2023-08-01T12:34:15;19.10;99.90
2497;DHT22;1259;48.306;14.374;2023-08-01T12:36:42;19.20;99.90
2497;DHT22;1259;48.306;14.374;2023-08-01T12:39:08;19.20;99.90
2497;DHT22;1259;48.306;14.374;2023-08-01T12:41:36;19.20;99.90
2497;DHT22;1259;48.306;14.374;2023-08-01T12:44:03;19.20;99.90
2497;DHT22;1259;48.306;14.374;2023-08-01T12:46:31;19.30;99.90
2497;DHT22;1259;48.306;14.374;2023-08-01T12:48:58;19.30;99.90
2497;DHT22;1259;48.306;14.374;2023-08-01T12:51:25;19.30;99.90
2497;DHT22;1259;48.306;14.374;2023-08-01T12:53:51;19.30;99.90
2497;DHT22;1259;48.306;14.374;2023-08-01T12:56:18;19.10;99.90
2497;DHT22;1259;48.306;14.374;2023-08-01T12:58:45;19.20;99.90
2497;DHT22;1259;48.306;14.374;2023-08-01T13:01:11;19.30;99.90
2497;DHT22;1259;48.306;14.374;2023-08-01T13:03:40;19.20;99.90
2497;DHT22;1259;48.306;14.374;2023-08-01T13:06:09;19.20;99.90
2497;DHT22;1259;48.306;14.374;2023-08-01T13:08:36;19.30;99.90
2497;DHT22;1259;48.306;14.374;2023-08-01T13:11:09;19.20;99.90
2497;DHT22;1259;48.306;14.374;2023-08-01T13:13:35;19.20;99.90
2497;DHT22;1259;48.306;14.374;2023-08-01T13:16:02;19.20;99.90
2497;DHT22;1259;48.306;14.374;2023-08-01T13:18:29;19.10;99.90
2497;DHT22;1259;48.306;14.374;2023-08-01T13:20:57;19.10;99.90
2497;DHT22;1259;48.306;14.374;2023-08-01T13:23:24;19.00;99.90
2497;DHT22;1259;48.306;14.374;2023-08-01T13:25:51;19.00;99.90
2497;DHT22;1259;48.306;14.374;2023-08-01T13:28:18;18.90;99.90
2497;DHT22;1259;48.306;14.374;2023-08-01T13:30:44;18.90;99.90
2497;DHT22;1259;48.306;14.374;2023-08-01T13:33:11;18.70;99.90
2497;DHT22;1259;48.306;14.374;2023-08-01T13:35:38;18.70;99.90
2497;DHT22;1259;48.306;14.374;2023-08-01T13:38:06;18.80;99.90
2497;DHT22;1259;48.306;14.374;2023-08-01T13:40:33;18.70;99.90
2497;DHT22;1259;48.306;14.374;2023-08-01T13:43:00;18.70;99.90
2497;DHT22;1259;48.306;14.374;2023-08-01T13:45:29;18.80;99.90
2497;DHT22;1259;48.306;14.374;2023-08-01T13:47:56;18.90;99.90
2497;DHT22;1259;48.306;14.374;2023-08-01T13:50:22;18.70;99.90
2497;DHT22;1259;48.306;14.374;2023-08-01T13:52:49;18.70;99.90
2497;DHT22;1259;48.306;14.374;2023-08-01T13:55:17;18.60;99.90
2497;DHT22;1259;48.306;14.374;2023-08-01T13:57:44;18.30;99.90
2497;DHT22;1259;48.306;14.374;2023-08-01T14:00:11;18.30;99.90
2497;DHT22;1259;48.306;14.374;2023-08-01T14:02:38;18.30;99.90
2497;DHT22;1259;48.306;14.374;2023-08-01T14:05:05;18.40;99.90
2497;DHT22;1259;48.306;14.374;2023-08-01T14:07:34;18.50;99.90
2497;DHT22;1259;48.306;14.374;2023-08-01T14:10:00;18.50;99.90
2497;DHT22;1259;48.306;14.374;2023-08-01T14:12:28;18.50;99.90
2497;DHT22;1259;48.306;14.374;2023-08-01T14:14:55;18.70;99.90
2497;DHT22;1259;48.306;14.374;2023-08-01T14:17:22;18.70;99.90
2497;DHT22;1259;48.306;14.374;2023-08-01T14:19:49;18.80;99.90
2497;DHT22;1259;48.306;14.374;2023-08-01T14:22:15;18.80;99.90
2497;DHT22;1259;48.306;14.374;2023-08-01T14:24:42;18.70;99.90
2497;DHT22;1259;48.306;14.374;2023-08-01T14:27:09;18.60;99.90
2497;DHT22;1259;48.306;14.374;2023-08-01T14:29:37;18.80;99.90
2497;DHT22;1259;48.306;14.374;2023-08-01T14:32:04;18.90;99.90
2497;DHT22;1259;48.306;14.374;2023-08-01T14:34:30;19.00;99.90
2497;DHT22;1259;48.306;14.374;2023-08-01T14:36:57;19.00;99.90
2497;DHT22;1259;48.306;14.374;2023-08-01T14:39:24;19.00;99.90
2497;DHT22;1259;48.306;14.374;2023-08-01T14:41:51;18.90;99.90
2497;DHT22;1259;48.306;14.374;2023-08-01T14:44:18;18.90;99.90
2497;DHT22;1259;48.306;14.374;2023-08-01T14:46:46;18.90;99.90
2497;DHT22;1259;48.306;14.374;2023-08-01T14:49:12;18.70;99.90
2497;DHT22;1259;48.306;14.374;2023-08-01T14:51:39;18.80;99.90
2497;DHT22;1259;48.306;14.374;2023-08-01T14:54:06;18.80;99.90
2497;DHT22;1259;48.306;14.374;2023-08-01T14:56:33;18.90;99.90
2497;DHT22;1259;48.306;14.374;2023-08-01T14:59:00;18.80;99.90
2497;DHT22;1259;48.306;14.374;2023-08-01T15:01:26;18.50;99.90
2497;DHT22;1259;48.306;14.374;2023-08-01T15:03:54;18.60;99.90
2497;DHT22;1259;48.306;14.374;2023-08-01T15:06:21;18.70;99.90
2497;DHT22;1259;48.306;14.374;2023-08-01T15:08:51;18.60;99.90
2497;DHT22;1259;48.306;14.374;2023-08-01T15:11:18;18.50;99.90
2497;DHT22;1259;48.306;14.374;2023-08-01T15:13:45;18.50;99.90
2497;DHT22;1259;48.306;14.374;2023-08-01T15:16:12;18.60;99.90
2497;DHT22;1259;48.306;14.374;2023-08-01T15:18:39;18.50;99.90
2497;DHT22;1259;48.306;14.374;2023-08-01T15:21:07;18.50;99.90
2497;DHT22;1259;48.306;14.374;2023-08-01T15:23:34;18.40;99.90
2497;DHT22;1259;48.306;14.374;2023-08-01T15:26:01;18.40;99.90
2497;DHT22;1259;48.306;14.374;2023-08-01T15:28:27;18.50;99.90
2497;DHT22;1259;48.306;14.374;2023-08-01T15:31:01;18.40;99.90
2497;DHT22;1259;48.306;14.374;2023-08-01T15:33:27;18.30;99.90
2497;DHT22;1259;48.306;14.374;2023-08-01T15:35:55;18.30;99.90
2497;DHT22;1259;48.306;14.374;2023-08-01T15:38:27;18.10;99.90
2497;DHT22;1259;48.306;14.374;2023-08-01T15:40:53;18.20;99.90
2497;DHT22;1259;48.306;14.374;2023-08-01T15:43:20;18.20;99.90